createdAt,value
2019-03-24T00:01:41.032Z,45.60
2019-03-24T00:04:08.183Z,41.85
2019-03-24T00:06:40.391Z,45.05
2019-03-24T00:09:12.656Z,45.52
2019-03-24T00:11:45.552Z,44.50
2019-03-24T00:14:17.922Z,47.75
2019-03-24T00:16:50.310Z,42.85
2019-03-24T00:19:22.808Z,42.48
2019-03-24T00:21:54.793Z,45.00
2019-03-24T00:24:26.760Z,42.62
2019-03-24T00:26:59.091Z,48.50
2019-03-24T00:29:31.887Z,50.23
2019-03-24T00:32:04.153Z,49.18
2019-03-24T00:34:36.440Z,52.08
2019-03-24T00:37:08.589Z,50.00
2019-03-24T00:39:40.548Z,52.27
2019-03-24T00:42:13.109Z,51.45
2019-03-24T00:44:45.140Z,52.05
2019-03-24T00:47:17.836Z,59.23
2019-03-24T00:49:49.770Z,62.13
2019-03-24T00:52:23.344Z,52.48
2019-03-24T00:54:55.814Z,52.80
2019-03-24T00:57:28.403Z,51.18
2019-03-24T01:00:00.823Z,45.52
2019-03-24T01:02:32.991Z,44.38
2019-03-24T01:05:06.143Z,39.65
2019-03-24T01:07:38.667Z,40.92
2019-03-24T01:10:11.480Z,39.25
2019-03-24T01:12:43.686Z,41.85
2019-03-24T01:15:16.367Z,32.75
2019-03-24T01:17:48.427Z,45.23
2019-03-24T01:20:20.489Z,40.85
2019-03-24T01:22:52.583Z,36.75
2019-03-24T01:25:24.630Z,35.65
2019-03-24T01:27:57.203Z,41.20
2019-03-24T01:30:30.472Z,31.82
2019-03-24T01:33:02.534Z,33.70
2019-03-24T01:35:53.771Z,33.35
2019-03-24T01:38:26.011Z,37.50
2019-03-24T01:40:58.194Z,45.52
2019-03-24T01:43:30.537Z,38.20
2019-03-24T01:46:02.808Z,30.65
2019-03-24T01:48:34.916Z,34.95
2019-03-24T01:51:08.095Z,35.28
2019-03-24T01:53:40.082Z,33.33
2019-03-24T01:56:12.357Z,43.00
2019-03-24T01:58:44.529Z,38.13
2019-03-24T02:01:17.110Z,36.83
2019-03-24T02:03:49.185Z,35.83
2019-03-24T02:06:21.959Z,40.20
2019-03-24T02:08:54.327Z,39.40
2019-03-24T02:11:26.786Z,34.53
2019-03-24T02:13:58.945Z,37.70
2019-03-24T02:16:31.068Z,40.03
2019-03-24T02:19:03.440Z,35.63
2019-03-24T02:21:35.686Z,33.28
2019-03-24T02:24:07.843Z,35.13
2019-03-24T02:26:40.336Z,32.55
2019-03-24T02:29:12.487Z,37.03
2019-03-24T02:31:46.939Z,51.40
2019-03-24T02:34:18.931Z,32.40
2019-03-24T02:36:51.780Z,33.92
2019-03-24T02:39:24.205Z,37.20
2019-03-24T02:41:56.255Z,33.13
2019-03-24T02:44:28.533Z,32.28
2019-03-24T02:47:00.783Z,37.93
2019-03-24T02:49:32.825Z,35.63
2019-03-24T02:52:04.910Z,40.67
2019-03-24T02:54:37.267Z,34.43
2019-03-24T02:57:09.413Z,32.03
2019-03-24T02:59:41.751Z,32.90
2019-03-24T03:02:14.254Z,33.23
2019-03-24T03:04:46.698Z,32.98
2019-03-24T03:07:18.916Z,36.40
2019-03-24T03:09:51.518Z,37.63
2019-03-24T03:12:23.550Z,37.17
2019-03-24T03:14:55.713Z,35.00
2019-03-24T03:17:28.083Z,37.15
2019-03-24T03:20:00.491Z,32.98
2019-03-24T03:22:32.650Z,34.08
2019-03-24T03:25:06.319Z,34.05
2019-03-24T03:27:38.503Z,34.63
2019-03-24T03:30:13.067Z,33.45
2019-03-24T03:32:46.248Z,37.45
2019-03-24T03:35:19.458Z,35.63
2019-03-24T03:37:55.269Z,33.42
2019-03-24T03:40:27.668Z,38.20
2019-03-24T03:43:18.682Z,34.05
2019-03-24T03:45:51.004Z,38.53
2019-03-24T03:48:23.188Z,33.78
2019-03-24T03:50:55.425Z,32.83
2019-03-24T03:53:27.445Z,36.40
2019-03-24T03:55:59.550Z,35.28
2019-03-24T03:58:32.717Z,31.75
2019-03-24T04:01:05.212Z,33.50
2019-03-24T04:03:37.753Z,38.48
2019-03-24T04:06:18.359Z,34.65
2019-03-24T04:08:51.169Z,40.63
2019-03-24T04:11:23.143Z,36.03
2019-03-24T04:13:55.786Z,34.73
2019-03-24T04:16:27.952Z,36.93
2019-03-24T04:18:59.973Z,33.55
2019-03-24T04:21:32.372Z,35.65
2019-03-24T04:24:04.375Z,35.40
2019-03-24T04:26:36.555Z,34.15
2019-03-24T04:29:09.312Z,40.55
2019-03-24T04:31:41.547Z,35.50
2019-03-24T04:34:14.352Z,38.88
2019-03-24T04:36:46.564Z,39.92
2019-03-24T04:39:18.919Z,44.20
2019-03-24T04:41:51.002Z,34.95
2019-03-24T04:44:23.992Z,34.60
2019-03-24T04:46:56.530Z,39.05
2019-03-24T04:49:28.687Z,40.17
2019-03-24T04:52:01.237Z,33.80
2019-03-24T04:54:33.361Z,35.23
2019-03-24T04:57:05.482Z,34.78
2019-03-24T04:59:38.678Z,34.45
2019-03-24T05:02:11.273Z,35.50
2019-03-24T05:04:46.553Z,35.05
2019-03-24T05:07:18.881Z,41.48
2019-03-24T05:09:51.777Z,42.13
2019-03-24T05:12:24.157Z,33.53
2019-03-24T05:14:56.357Z,34.63
2019-03-24T05:17:29.178Z,39.63
2019-03-24T05:20:01.407Z,36.35
2019-03-24T05:22:33.240Z,36.70
2019-03-24T05:25:05.992Z,32.53
2019-03-24T05:27:38.058Z,35.00
2019-03-24T05:30:10.540Z,35.25
2019-03-24T05:32:43.167Z,38.42
2019-03-24T05:35:15.085Z,37.30
2019-03-24T05:37:48.741Z,33.70
2019-03-24T05:40:20.691Z,36.35
2019-03-24T05:42:52.646Z,34.60
2019-03-24T05:45:25.547Z,33.63
2019-03-24T05:47:59.043Z,35.45
2019-03-24T05:50:31.473Z,37.30
2019-03-24T05:53:03.889Z,39.20
2019-03-24T05:55:36.068Z,35.10
2019-03-24T05:58:08.546Z,36.10
2019-03-24T06:00:40.604Z,34.92
2019-03-24T06:03:12.991Z,34.43
2019-03-24T06:05:45.316Z,33.35
2019-03-24T06:08:17.684Z,37.75
2019-03-24T06:10:50.282Z,33.98
2019-03-24T06:13:22.316Z,33.23
2019-03-24T06:15:54.379Z,36.33
2019-03-24T06:18:26.355Z,36.25
2019-03-24T06:20:58.892Z,40.58
2019-03-24T06:23:30.953Z,36.77
2019-03-24T06:26:03.735Z,39.18
2019-03-24T06:28:36.086Z,36.65
2019-03-24T06:31:08.038Z,34.13
2019-03-24T06:33:39.984Z,35.95
2019-03-24T06:36:12.762Z,35.80
2019-03-24T06:38:44.754Z,34.73
2019-03-24T06:41:17.791Z,34.98
2019-03-24T06:43:50.306Z,42.70
2019-03-24T06:46:23.037Z,35.17
2019-03-24T06:48:55.380Z,40.65
2019-03-24T06:51:27.576Z,46.15
2019-03-24T06:54:00.166Z,40.45
2019-03-24T06:56:32.502Z,34.55
2019-03-24T06:59:04.551Z,34.85
2019-03-24T07:01:55.682Z,35.00
2019-03-24T07:04:28.387Z,36.20
2019-03-24T07:07:00.702Z,35.25
2019-03-24T07:09:33.296Z,34.92
2019-03-24T07:12:05.413Z,35.80
2019-03-24T07:14:37.465Z,34.20
2019-03-24T07:17:09.877Z,33.90
2019-03-24T07:19:41.726Z,34.98
2019-03-24T07:22:14.159Z,36.63
2019-03-24T07:24:47.795Z,37.73
2019-03-24T07:27:19.817Z,33.10
2019-03-24T07:29:51.934Z,34.00
2019-03-24T07:32:23.795Z,34.48
2019-03-24T07:34:56.175Z,36.17
2019-03-24T07:37:28.938Z,37.08
2019-03-24T07:40:12.134Z,35.38
2019-03-24T07:42:45.641Z,34.15
2019-03-24T07:45:19.128Z,69.45
2019-03-24T07:47:51.714Z,34.13
2019-03-24T07:50:42.498Z,34.30
2019-03-24T07:53:14.596Z,34.88
2019-03-24T07:56:06.832Z,32.63
2019-03-24T07:58:59.110Z,34.95
2019-03-24T08:01:32.206Z,32.60
2019-03-24T08:04:06.025Z,33.08
2019-03-24T08:06:38.068Z,32.00
2019-03-24T08:09:10.805Z,31.35
2019-03-24T08:11:42.713Z,33.10
2019-03-24T08:14:14.934Z,32.33
2019-03-24T08:16:47.379Z,33.00
2019-03-24T08:19:19.850Z,33.42
2019-03-24T08:21:52.167Z,31.17
2019-03-24T08:24:24.072Z,33.20
2019-03-24T08:26:56.199Z,30.37
2019-03-24T08:29:28.233Z,31.12
2019-03-24T08:32:00.760Z,33.38
2019-03-24T08:34:33.027Z,32.03
2019-03-24T08:37:07.306Z,31.10
2019-03-24T08:39:39.641Z,35.05
2019-03-24T08:42:12.085Z,31.50
2019-03-24T08:44:44.668Z,32.17
2019-03-24T08:47:16.847Z,31.87
2019-03-24T08:49:48.923Z,38.58
2019-03-24T08:52:21.330Z,31.57
2019-03-24T08:54:53.457Z,30.37
2019-03-24T08:57:25.358Z,32.42
2019-03-24T08:59:58.104Z,29.57
2019-03-24T09:02:30.719Z,34.50
2019-03-24T09:05:03.202Z,30.27
2019-03-24T09:07:35.358Z,30.80
2019-03-24T09:10:10.123Z,32.50
2019-03-24T09:12:42.578Z,30.50
2019-03-24T09:15:15.589Z,32.38
2019-03-24T09:17:47.952Z,31.17
2019-03-24T09:20:20.482Z,32.38
2019-03-24T09:22:53.394Z,30.12
2019-03-24T09:25:25.623Z,31.17
2019-03-24T09:27:57.569Z,31.20
2019-03-24T09:30:34.012Z,34.80
2019-03-24T09:33:06.407Z,31.25
2019-03-24T09:35:39.384Z,33.23
2019-03-24T09:38:11.657Z,30.40
2019-03-24T09:41:00.722Z,31.25
2019-03-24T09:43:33.353Z,28.77
2019-03-24T09:46:06.676Z,29.23
2019-03-24T09:48:39.465Z,31.93
2019-03-24T09:51:11.554Z,29.85
2019-03-24T09:53:43.726Z,30.45
2019-03-24T09:56:18.615Z,28.32
2019-03-24T09:58:50.872Z,29.37
2019-03-24T10:01:22.769Z,28.65
2019-03-24T10:03:54.659Z,28.55
2019-03-24T10:06:27.025Z,29.48
2019-03-24T10:08:59.392Z,29.67
2019-03-24T10:11:31.331Z,29.90
2019-03-24T10:14:03.732Z,29.60
2019-03-24T10:16:35.553Z,29.55
2019-03-24T10:19:14.006Z,30.35
2019-03-24T10:21:41.771Z,29.37
2019-03-24T10:24:13.869Z,35.20
2019-03-24T10:26:46.249Z,29.48
2019-03-24T10:29:19.341Z,29.77
2019-03-24T10:31:52.762Z,29.45
2019-03-24T10:34:24.918Z,34.53
2019-03-24T10:36:57.075Z,34.48
2019-03-24T10:39:28.850Z,33.55
2019-03-24T10:42:01.847Z,30.57
2019-03-24T10:44:34.140Z,29.72
2019-03-24T10:47:07.514Z,29.77
2019-03-24T10:49:39.920Z,30.20
2019-03-24T10:52:12.668Z,30.97
2019-03-24T10:54:47.581Z,30.37
2019-03-24T10:57:19.744Z,31.60
2019-03-24T10:59:51.708Z,33.02
2019-03-24T11:02:23.615Z,34.03
2019-03-24T11:04:56.221Z,31.50
2019-03-24T11:07:28.290Z,32.70
2019-03-24T11:10:00.342Z,34.15
2019-03-24T11:12:32.952Z,31.42
2019-03-24T11:15:08.123Z,34.05
2019-03-24T11:17:40.459Z,31.50
2019-03-24T11:20:13.116Z,38.42
2019-03-24T11:22:44.955Z,34.55
2019-03-24T11:25:17.688Z,36.75
2019-03-24T11:27:49.732Z,32.48
2019-03-24T11:30:21.774Z,34.65
2019-03-24T11:32:54.220Z,32.48
2019-03-24T11:35:26.390Z,33.10
2019-03-24T11:37:58.460Z,33.78
2019-03-24T11:40:31.247Z,36.85
2019-03-24T11:43:03.679Z,36.58
2019-03-24T11:45:36.002Z,34.73
2019-03-24T11:48:08.983Z,37.75
2019-03-24T11:50:41.214Z,36.13
2019-03-24T11:53:13.281Z,36.50
2019-03-24T11:55:45.955Z,36.20
2019-03-24T11:58:37.328Z,39.18
2019-03-24T12:01:12.353Z,36.73
2019-03-24T12:04:04.627Z,43.00
2019-03-24T12:06:36.845Z,38.80
2019-03-24T12:09:09.906Z,38.50
2019-03-24T12:11:42.001Z,39.60
2019-03-24T12:14:14.206Z,39.63
2019-03-24T12:16:46.677Z,43.38
2019-03-24T12:19:18.828Z,36.42
2019-03-24T12:21:50.704Z,38.58
2019-03-24T12:24:23.215Z,37.30
2019-03-24T12:26:55.315Z,38.42
2019-03-24T12:29:27.662Z,37.95
2019-03-24T12:31:59.697Z,38.65
2019-03-24T12:34:31.958Z,42.00
2019-03-24T12:37:07.087Z,53.15
2019-03-24T12:39:39.426Z,57.13
2019-03-24T12:42:11.286Z,47.93
2019-03-24T12:44:43.797Z,50.30
2019-03-24T12:47:15.809Z,51.85
2019-03-24T12:49:50.060Z,47.58
2019-03-24T12:52:22.403Z,49.60
2019-03-24T12:54:54.856Z,48.10
2019-03-24T12:57:28.949Z,50.90
2019-03-24T13:00:01.234Z,46.50
2019-03-24T13:02:33.811Z,52.78
2019-03-24T13:05:07.603Z,46.23
2019-03-24T13:07:40.155Z,45.85
2019-03-24T13:10:12.469Z,47.73
2019-03-24T13:12:44.729Z,48.90
2019-03-24T13:15:16.967Z,53.15
2019-03-24T13:17:49.561Z,49.77
2019-03-24T13:20:36.472Z,48.23
2019-03-24T13:22:55.603Z,47.33
2019-03-24T13:25:28.577Z,49.90
2019-03-24T13:28:01.010Z,45.10
2019-03-24T13:30:33.567Z,50.35
2019-03-24T13:33:06.141Z,46.88
2019-03-24T13:35:38.514Z,59.00
2019-03-24T13:38:11.010Z,48.17
2019-03-24T13:40:52.693Z,44.67
2019-03-24T13:43:25.368Z,47.48
2019-03-24T13:45:57.468Z,44.88
2019-03-24T13:48:29.856Z,46.05
2019-03-24T13:51:02.189Z,47.53
2019-03-24T13:53:34.673Z,45.88
2019-03-24T13:56:07.218Z,52.80
2019-03-24T13:58:39.369Z,45.30
2019-03-24T14:01:11.992Z,46.63
2019-03-24T14:03:44.245Z,47.55
2019-03-24T14:06:16.789Z,44.85
2019-03-24T14:08:48.805Z,48.40
2019-03-24T14:11:24.136Z,45.20
2019-03-24T14:13:55.306Z,45.12
2019-03-24T14:16:27.429Z,45.90
2019-03-24T14:18:59.556Z,48.60
2019-03-24T14:21:31.498Z,43.33
2019-03-24T14:24:04.082Z,43.20
2019-03-24T14:26:36.131Z,46.70
2019-03-24T14:29:08.350Z,42.35
2019-03-24T14:31:40.565Z,47.00
2019-03-24T14:34:12.554Z,45.00
2019-03-24T14:36:44.608Z,46.37
2019-03-24T14:39:17.497Z,47.45
2019-03-24T14:41:49.700Z,42.13
2019-03-24T14:44:21.764Z,40.35
2019-03-24T14:46:54.024Z,41.23
2019-03-24T14:49:26.079Z,39.35
2019-03-24T14:51:59.207Z,40.67
2019-03-24T14:54:38.925Z,41.42
2019-03-24T14:57:11.454Z,43.35
2019-03-24T14:59:44.157Z,40.23
2019-03-24T15:02:16.122Z,47.83
2019-03-24T15:04:48.350Z,36.60
2019-03-24T15:07:20.777Z,36.45
2019-03-24T15:09:53.579Z,35.60
2019-03-24T15:12:26.376Z,36.40
2019-03-24T15:14:58.424Z,34.88
2019-03-24T15:17:50.307Z,35.40
2019-03-24T15:20:22.624Z,40.15
2019-03-24T15:23:14.985Z,35.38
2019-03-24T15:25:47.035Z,36.25
2019-03-24T15:28:21.366Z,41.63
2019-03-24T15:30:54.131Z,36.23
2019-03-24T15:33:26.349Z,34.80
2019-03-24T15:35:58.224Z,38.42
2019-03-24T15:38:30.221Z,36.70
2019-03-24T15:41:02.810Z,39.53
2019-03-24T15:43:35.183Z,41.13
2019-03-24T15:46:07.461Z,37.38
2019-03-24T15:48:39.699Z,35.52
2019-03-24T15:51:16.776Z,41.33
2019-03-24T15:53:47.051Z,36.10
2019-03-24T15:56:19.415Z,35.65
2019-03-24T15:58:51.464Z,33.70
2019-03-24T16:01:23.645Z,35.03
2019-03-24T16:04:15.093Z,33.63
2019-03-24T16:06:47.291Z,33.23
2019-03-24T16:09:19.435Z,34.63
2019-03-24T16:11:52.202Z,31.10
2019-03-24T16:14:24.417Z,35.13
2019-03-24T16:16:56.521Z,33.38
2019-03-24T16:19:28.735Z,31.73
2019-03-24T16:22:01.285Z,32.70
2019-03-24T16:24:33.584Z,32.42
2019-03-24T16:27:06.582Z,33.05
2019-03-24T16:29:38.795Z,33.78
2019-03-24T16:32:11.109Z,34.88
2019-03-24T16:35:03.023Z,32.00
2019-03-24T16:37:35.032Z,31.30
2019-03-24T16:40:09.706Z,32.90
2019-03-24T16:42:42.840Z,35.13
2019-03-24T16:45:16.078Z,34.05
2019-03-24T16:47:48.474Z,31.70
2019-03-24T16:50:20.626Z,39.55
2019-03-24T16:52:53.814Z,32.50
2019-03-24T16:55:27.191Z,33.48
2019-03-24T16:58:01.052Z,32.15
2019-03-24T17:00:33.322Z,32.28
2019-03-24T17:03:05.621Z,33.48
2019-03-24T17:05:38.654Z,34.08
2019-03-24T17:08:11.973Z,34.88
2019-03-24T17:10:46.567Z,31.93
2019-03-24T17:13:19.025Z,33.75
2019-03-24T17:15:51.268Z,32.50
2019-03-24T17:18:23.608Z,31.70
2019-03-24T17:20:55.866Z,32.93
2019-03-24T17:23:28.179Z,32.63
2019-03-24T17:26:00.830Z,33.45
2019-03-24T17:28:32.902Z,36.73
2019-03-24T17:31:05.118Z,31.70
2019-03-24T17:33:37.308Z,33.63
2019-03-24T17:36:10.031Z,34.60
2019-03-24T17:38:42.078Z,31.50
2019-03-24T17:41:14.604Z,31.80
2019-03-24T17:43:47.423Z,35.10
2019-03-24T17:46:20.036Z,32.65
2019-03-24T17:48:52.607Z,34.85
2019-03-24T17:51:24.763Z,33.10
2019-03-24T17:53:56.756Z,34.18
2019-03-24T17:56:29.565Z,32.88
2019-03-24T17:59:01.769Z,32.90
2019-03-24T18:01:33.999Z,33.05
2019-03-24T18:04:07.469Z,33.63
2019-03-24T18:06:39.541Z,33.13
2019-03-24T18:09:12.291Z,33.48
2019-03-24T18:11:44.480Z,33.92
2019-03-24T18:14:16.611Z,37.03
2019-03-24T18:16:49.333Z,36.05
2019-03-24T18:19:21.739Z,33.60
2019-03-24T18:21:54.176Z,36.40
2019-03-24T18:24:26.409Z,34.80
2019-03-24T18:26:58.339Z,35.52
2019-03-24T18:29:30.267Z,35.40
2019-03-24T18:32:02.954Z,36.17
2019-03-24T18:34:35.155Z,36.95
2019-03-24T18:37:08.225Z,38.13
2019-03-24T18:39:40.514Z,35.23
2019-03-24T18:42:12.644Z,38.25
2019-03-24T18:44:45.373Z,36.93
2019-03-24T18:47:39.266Z,37.33
2019-03-24T18:50:13.435Z,35.63
2019-03-24T18:52:45.482Z,31.25
2019-03-24T18:55:18.573Z,25.72
2019-03-24T18:57:51.416Z,27.65
2019-03-24T19:00:23.560Z,31.10
2019-03-24T19:02:55.820Z,26.52
2019-03-24T19:05:28.135Z,26.10
2019-03-24T19:08:01.189Z,22.32
2019-03-24T19:10:33.651Z,26.97
2019-03-24T19:13:05.974Z,24.50
2019-03-24T19:15:38.097Z,25.48
2019-03-24T19:18:29.634Z,26.82
2019-03-24T19:21:02.421Z,25.27
2019-03-24T19:23:34.808Z,23.70
2019-03-24T19:26:07.038Z,22.77
2019-03-24T19:28:39.254Z,25.37
2019-03-24T19:31:11.594Z,23.95
2019-03-24T19:33:44.064Z,27.15
2019-03-24T19:36:16.005Z,22.50
2019-03-24T19:38:48.343Z,23.52
2019-03-24T19:41:20.578Z,23.55
2019-03-24T19:43:55.309Z,27.70
2019-03-24T19:46:27.533Z,26.10
2019-03-24T19:49:00.171Z,24.52
2019-03-24T19:51:32.410Z,23.65
2019-03-24T19:54:04.765Z,24.70
2019-03-24T19:56:39.227Z,26.93
2019-03-24T19:59:13.608Z,31.55
2019-03-24T20:01:45.893Z,31.70
2019-03-24T20:04:18.048Z,37.15
2019-03-24T20:06:50.049Z,29.27
2019-03-24T20:09:22.027Z,28.12
2019-03-24T20:11:54.669Z,30.52
2019-03-24T20:14:26.758Z,30.95
2019-03-24T20:16:58.879Z,27.70
2019-03-24T20:19:31.046Z,29.70
2019-03-24T20:22:03.528Z,28.98
2019-03-24T20:24:35.615Z,31.52
2019-03-24T20:27:08.061Z,30.35
2019-03-24T20:29:40.172Z,28.02
2019-03-24T20:32:12.764Z,27.90
2019-03-24T20:34:44.870Z,32.03
2019-03-24T20:37:16.781Z,31.40
2019-03-24T20:39:48.909Z,31.42
2019-03-24T20:42:21.596Z,33.33
2019-03-24T20:44:53.677Z,35.40
2019-03-24T20:47:26.243Z,34.53
2019-03-24T20:49:58.469Z,35.83
2019-03-24T20:52:30.632Z,40.48
2019-03-24T20:55:03.108Z,39.27
2019-03-24T20:57:35.342Z,37.78
2019-03-24T21:00:09.942Z,38.53
2019-03-24T21:02:42.797Z,39.70
2019-03-24T21:05:14.936Z,34.05
2019-03-24T21:07:47.750Z,35.98
2019-03-24T21:10:19.913Z,40.05
2019-03-24T21:12:52.515Z,40.80
2019-03-24T21:15:24.689Z,38.85
2019-03-24T21:17:59.935Z,38.00
2019-03-24T21:20:32.672Z,37.65
2019-03-24T21:23:05.182Z,41.48
2019-03-24T21:25:37.225Z,38.05
2019-03-24T21:28:09.198Z,34.90
2019-03-24T21:30:42.975Z,34.75
2019-03-24T21:33:15.301Z,40.05
2019-03-24T21:35:47.245Z,36.75
2019-03-24T21:38:19.503Z,37.98
2019-03-24T21:40:51.767Z,37.85
2019-03-24T21:43:23.905Z,40.23
2019-03-24T21:45:56.021Z,36.65
2019-03-24T21:48:28.215Z,38.70
2019-03-24T21:51:00.189Z,37.93
2019-03-24T21:53:40.331Z,41.48
2019-03-24T21:56:06.872Z,36.35
2019-03-24T21:58:39.027Z,40.90
2019-03-24T22:01:11.474Z,34.58
2019-03-24T22:03:44.482Z,39.45
2019-03-24T22:06:16.331Z,34.83
2019-03-24T22:08:48.427Z,33.23
2019-03-24T22:11:21.013Z,36.25
2019-03-24T22:13:53.068Z,37.70
2019-03-24T22:16:25.115Z,41.50
2019-03-24T22:18:57.253Z,34.73
2019-03-24T22:21:31.216Z,36.50
2019-03-24T22:24:03.280Z,42.25
2019-03-24T22:26:36.220Z,34.85
2019-03-24T22:29:08.439Z,37.58
2019-03-24T22:31:40.719Z,36.93
2019-03-24T22:34:12.964Z,37.65
2019-03-24T22:36:45.042Z,40.38
2019-03-24T22:39:17.181Z,38.30
2019-03-24T22:41:49.486Z,36.68
2019-03-24T22:44:21.471Z,40.03
2019-03-24T22:46:53.605Z,39.70
2019-03-24T22:49:26.091Z,39.20
2019-03-24T22:52:06.870Z,45.15
2019-03-24T22:54:32.335Z,40.55
2019-03-24T22:57:04.438Z,38.63
2019-03-24T22:59:36.626Z,37.88
2019-03-24T23:02:09.289Z,39.63
2019-03-24T23:04:41.925Z,43.30
2019-03-24T23:07:13.985Z,43.98
2019-03-24T23:10:06.193Z,50.25
2019-03-24T23:12:39.373Z,44.65
2019-03-24T23:15:12.892Z,40.65
2019-03-24T23:17:45.132Z,43.50
2019-03-24T23:20:17.563Z,44.67
2019-03-24T23:22:49.744Z,45.52
2019-03-24T23:25:21.605Z,44.77
2019-03-24T23:27:54.792Z,42.53
2019-03-24T23:30:26.985Z,43.78
2019-03-24T23:32:58.970Z,43.35
2019-03-24T23:35:30.956Z,43.90
2019-03-24T23:38:03.304Z,44.20
2019-03-24T23:40:35.241Z,43.52
2019-03-24T23:43:08.904Z,51.48
2019-03-24T23:45:41.571Z,45.10
2019-03-24T23:48:13.713Z,42.73
2019-03-24T23:50:45.836Z,43.30
2019-03-24T23:53:18.018Z,50.85
2019-03-24T23:55:50.198Z,48.70
2019-03-24T23:58:22.719Z,53.15
